Hawk Lake, Canada
Current Conditions -  °F | °C
As of 1:00 PM on Thursday 30 Oct 2014 (Local Time) from CYQK Reporting Station
Broken Clouds Broken Clouds  
Wind Chill: 18°   Ceiling: 2000
Heat Index: 30°   Visibility: 12mi
Dew Point: 27°   Wind: 18mph
Humidity: 86%   Direction: 340°NNW
Pressure: 30.19"   Gusts: 29mph
Location:  49.8°N, 94.01°W
Report Text: CYQK 301800Z 34016G25KT 310V010 12SM SCT010 BKN020 M01/M03 A3019 RMK SC4SC3 CVCTV CLD EMBD SLP243
Loading
Personal Weather Stations






























Interactive Weather Map
Tropical Storm Tracking
New forecast layout! Learn more

10-Day Weather Forecast

Advertisements
Track Severe Weather on mobile